Time;durP1;ratioP1;P1;durP2;ratioP2;P2;SDS_P1;SDS_P2;PMS_P1;PMS_P2;Temp;Humidity;BMP_temperature;BMP_pressure;BME280_temperature;BME280_humidity;BME280_pressure;Samples;Min_cycle;Max_cycle;Signal;HPM_P1;HPM_P2
2024/01/13 00:01:13;;;;;;;16.20;12.00;;;;;;;0.29;89.53;100447.45;111187;242;38330;-67
2024/01/13 00:04:04;;;;;;;14.20;11.10;;;;;;;0.26;89.61;100446.41;111214;242;38446;-68
2024/01/13 00:06:39;;;;;;;14.40;10.10;;;;;;;0.26;89.57;100446.06;111228;242;38220;-67
2024/01/13 00:09:17;;;;;;;12.70;10.20;;;;;;;0.27;89.52;100443.49;111202;242;40948;-66
2024/01/13 00:11:56;;;;;;;13.90;10.70;;;;;;;0.31;89.61;100437.34;111238;242;40133;-67
2024/01/13 00:15:03;;;;;;;15.90;10.90;;;;;;;0.31;89.57;100432.70;111139;242;175935;-68
2024/01/13 00:17:41;;;;;;;15.90;12.10;;;;;;;0.30;89.62;100432.01;111247;242;39385;-68
2024/01/13 00:20:16;;;;;;;16.70;12.00;;;;;;;0.24;89.64;100434.55;111144;242;38411;-68
2024/01/13 00:22:53;;;;;;;15.80;11.20;;;;;;;0.21;89.73;100432.48;111103;242;39421;-67
2024/01/13 00:25:28;;;;;;;14.70;10.30;;;;;;;0.18;89.66;100433.83;111243;242;39445;-65
2024/01/13 00:28:06;;;;;;;14.30;10.10;;;;;;;0.19;89.69;100432.81;111237;242;38466;-68
2024/01/13 00:30:43;;;;;;;15.90;10.50;;;;;;;0.22;89.73;100434.37;111230;242;39635;-67
2024/01/13 00:33:20;;;;;;;14.80;10.20;;;;;;;0.24;89.74;100438.67;111218;242;38382;-67
2024/01/13 00:35:59;;;;;;;16.90;11.10;;;;;;;0.23;89.78;100439.35;111252;242;38292;-66
2024/01/13 00:38:37;;;;;;;15.60;11.50;;;;;;;0.19;89.75;100443.80;111186;242;39485;-68
2024/01/13 00:41:15;;;;;;;16.50;11.70;;;;;;;0.17;89.92;100435.03;111221;242;38555;-68
2024/01/13 00:43:52;;;;;;;14.80;9.40;;;;;;;0.18;89.87;100430.40;111241;242;38252;-69
2024/01/13 00:46:28;;;;;;;12.50;9.00;;;;;;;0.20;89.87;100433.85;111207;242;38522;-68
2024/01/13 00:49:08;;;;;;;13.80;9.80;;;;;;;0.24;89.82;100431.46;111254;242;38994;-66
2024/01/13 00:51:43;;;;;;;13.10;9.80;;;;;;;0.28;89.86;100434.73;111210;242;38753;-67
2024/01/13 00:54:20;;;;;;;12.00;9.60;;;;;;;0.27;89.89;100434.91;111228;242;38700;-67
2024/01/13 00:56:58;;;;;;;14.80;9.70;;;;;;;0.25;89.74;100436.11;111261;242;38278;-69
2024/01/13 00:59:38;;;;;;;13.60;9.30;;;;;;;0.22;89.80;100431.11;111223;242;40095;-69
2024/01/13 01:02:13;;;;;;;13.30;8.70;;;;;;;0.20;89.76;100422.88;111274;242;38323;-69
2024/01/13 01:04:52;;;;;;;10.70;7.90;;;;;;;0.27;89.92;100413.28;111221;242;38570;-69
2024/01/13 01:07:32;;;;;;;12.50;9.10;;;;;;;0.33;89.89;100411.77;111254;242;38236;-67
2024/01/13 01:10:10;;;;;;;12.10;8.80;;;;;;;0.37;89.98;100403.04;111213;242;38398;-68
2024/01/13 01:12:45;;;;;;;12.10;9.00;;;;;;;0.37;89.78;100402.01;111270;242;38330;-66
2024/01/13 01:15:22;;;;;;;11.60;9.30;;;;;;;0.38;89.87;100405.09;111262;242;38409;-67
2024/01/13 01:18:01;;;;;;;11.70;8.50;;;;;;;0.35;89.79;100409.56;111225;242;38557;-66
2024/01/13 01:20:35;;;;;;;11.10;7.50;;;;;;;0.35;89.69;100412.81;110520;242;914425;-66
2024/01/13 01:23:13;;;;;;;12.90;8.40;;;;;;;0.34;89.46;100409.73;111195;242;39831;-67
2024/01/13 01:25:51;;;;;;;10.60;8.60;;;;;;;0.37;89.71;100408.54;111226;242;38583;-68
2024/01/13 01:28:26;;;;;;;12.00;9.00;;;;;;;0.39;89.68;100403.89;111204;242;38859;-67
2024/01/13 01:31:04;;;;;;;10.90;7.90;;;;;;;0.38;89.73;100404.06;111230;242;40186;-67
2024/01/13 01:33:43;;;;;;;12.20;8.30;;;;;;;0.36;89.67;100415.56;111242;242;38735;-66
2024/01/13 01:36:22;;;;;;;10.70;7.30;;;;;;;0.37;89.53;100416.08;111204;242;38574;-68
2024/01/13 01:39:05;;;;;;;12.70;7.50;;;;;;;0.35;89.21;100415.23;111197;242;38578;-68
2024/01/13 01:41:44;;;;;;;10.40;8.00;;;;;;;0.35;89.22;100415.91;111226;242;39462;-68
2024/01/13 01:44:21;;;;;;;9.10;7.10;;;;;;;0.33;89.02;100409.20;111204;242;39882;-67
2024/01/13 01:46:57;;;;;;;9.90;7.60;;;;;;;0.29;89.22;100405.24;111259;242;38590;-67
2024/01/13 01:49:38;;;;;;;12.50;8.10;;;;;;;0.28;89.22;100409.17;111161;242;38325;-66
2024/01/13 01:52:14;;;;;;;8.80;6.40;;;;;;;0.30;89.12;100407.31;111185;242;40018;-67
2024/01/13 01:54:49;;;;;;;9.00;6.60;;;;;;;0.33;89.12;100410.57;111238;242;38730;-66
2024/01/13 01:57:26;;;;;;;10.30;6.50;;;;;;;0.36;88.97;100407.51;111229;242;38384;-67
2024/01/13 02:00:06;;;;;;;10.50;7.00;;;;;;;0.34;88.69;100407.83;111201;242;38321;-67
2024/01/13 02:02:40;;;;;;;9.20;7.20;;;;;;;0.32;88.73;100400.27;111222;242;38889;-66
2024/01/13 02:05:20;;;;;;;10.80;8.10;;;;;;;0.30;88.65;100395.30;111197;242;38493;-67
2024/01/13 02:07:56;;;;;;;9.90;7.30;;;;;;;0.28;88.68;100396.14;111205;242;38865;-66
2024/01/13 02:10:31;;;;;;;9.20;6.50;;;;;;;0.27;88.43;100396.14;111259;242;38505;-67
2024/01/13 02:13:11;;;;;;;8.80;6.00;;;;;;;0.28;88.37;100391.34;111198;242;38453;-67
2024/01/13 02:15:48;;;;;;;9.70;7.30;;;;;;;0.31;88.24;100384.15;111237;242;38850;-68
2024/01/13 02:18:24;;;;;;;10.40;7.20;;;;;;;0.31;88.20;100382.77;111232;242;38567;-66
2024/01/13 02:21:00;;;;;;;9.70;7.10;;;;;;;0.32;88.35;100377.29;111228;242;38405;-66
2024/01/13 02:23:43;;;;;;;10.30;7.30;;;;;;;0.30;88.11;100369.55;111219;242;39486;-68
2024/01/13 02:26:19;;;;;;;10.00;6.40;;;;;;;0.26;88.06;100365.26;111253;242;38418;-69
2024/01/13 02:28:53;;;;;;;8.70;6.30;;;;;;;0.24;87.97;100359.07;111207;242;39984;-70
2024/01/13 02:31:27;;;;;;;8.60;6.00;;;;;;;0.27;88.20;100360.62;111218;242;40136;-66
2024/01/13 02:34:06;;;;;;;8.00;6.00;;;;;;;0.33;87.91;100363.20;111201;242;38547;-66
2024/01/13 02:36:41;;;;;;;8.30;6.60;;;;;;;0.33;87.81;100358.91;111238;242;38755;-67
2024/01/13 02:39:19;;;;;;;8.70;6.70;;;;;;;0.35;87.96;100349.16;111199;242;38233;-67
2024/01/13 02:41:54;;;;;;;8.70;6.80;;;;;;;0.37;87.98;100343.50;111281;242;39778;-66
2024/01/13 02:44:33;;;;;;;9.60;7.40;;;;;;;0.34;87.75;100339.36;111193;242;38328;-67
2024/01/13 02:47:11;;;;;;;11.10;6.90;;;;;;;0.32;87.83;100340.57;111208;242;38568;-66
2024/01/13 02:49:47;;;;;;;7.60;6.00;;;;;;;0.34;87.76;100337.30;111197;242;38596;-66
2024/01/13 02:52:27;;;;;;;7.30;5.50;;;;;;;0.38;87.68;100331.48;111207;242;38808;-67
2024/01/13 02:55:06;;;;;;;9.40;6.60;;;;;;;0.38;87.42;100329.42;111175;242;38846;-66
2024/01/13 02:57:43;;;;;;;8.90;7.20;;;;;;;0.36;87.37;100321.71;111205;242;38529;-69
2024/01/13 03:00:19;;;;;;;7.90;6.60;;;;;;;0.35;87.53;100314.84;110555;242;913477;-67
2024/01/13 03:02:54;;;;;;;10.50;7.00;;;;;;;0.33;87.44;100315.51;111229;242;39757;-67
2024/01/13 03:05:28;;;;;;;9.10;7.00;;;;;;;0.29;87.39;100320.14;111218;242;39392;-67
2024/01/13 03:08:04;;;;;;;8.60;6.20;;;;;;;0.29;87.48;100317.04;111197;242;38551;-67
2024/01/13 03:10:47;;;;;;;8.60;6.60;;;;;;;0.32;87.48;100316.20;111226;242;38593;-67
2024/01/13 03:13:26;;;;;;;7.50;6.70;;;;;;;0.36;87.46;100316.89;111238;242;38434;-67
2024/01/13 03:16:02;;;;;;;9.60;6.60;;;;;;;0.39;87.56;100316.04;111233;242;38548;-66
2024/01/13 03:18:37;;;;;;;9.40;7.20;;;;;;;0.41;87.58;100323.44;111207;242;39906;-67
2024/01/13 03:21:14;;;;;;;11.90;7.50;;;;;;;0.42;87.59;100322.05;111224;242;38407;-67
2024/01/13 03:23:51;;;;;;;9.30;7.40;;;;;;;0.40;87.49;100317.60;111215;242;38001;-66
2024/01/13 03:26:28;;;;;;;8.00;6.60;;;;;;;0.38;87.41;100316.73;111242;242;39099;-67
2024/01/13 03:29:08;;;;;;;8.20;6.60;;;;;;;0.42;87.40;100318.80;111203;242;38319;-68
2024/01/13 03:31:45;;;;;;;10.10;7.70;;;;;;;0.42;87.18;100320.17;111261;242;38381;-69
2024/01/13 03:34:23;;;;;;;11.40;7.50;;;;;;;0.37;87.27;100319.98;111213;242;39386;-67
2024/01/13 03:36:59;;;;;;;12.20;7.70;;;;;;;0.37;87.51;100322.05;111241;242;38423;-67
2024/01/13 03:39:39;;;;;;;10.20;8.30;;;;;;;0.34;87.43;100322.56;111202;242;39432;-66
2024/01/13 03:42:15;;;;;;;9.60;6.80;;;;;;;0.34;87.59;100326.15;111240;242;38817;-67
2024/01/13 03:44:51;;;;;;;10.70;7.80;;;;;;;0.38;87.48;100320.15;111242;242;38567;-67
2024/01/13 03:47:35;;;;;;;8.30;6.90;;;;;;;0.40;87.67;100320.86;111229;242;38245;-69
2024/01/13 03:50:11;;;;;;;10.70;8.60;;;;;;;0.41;87.63;100322.92;111193;242;39991;-67
2024/01/13 03:52:45;;;;;;;11.30;8.70;;;;;;;0.41;87.78;100311.59;111254;242;38454;-67
2024/01/13 03:55:25;;;;;;;10.10;7.80;;;;;;;0.39;87.75;100306.77;111249;242;38693;-69
2024/01/13 03:58:02;;;;;;;12.80;8.10;;;;;;;0.39;87.77;100305.06;111202;242;38336;-69
2024/01/13 04:00:37;;;;;;;10.90;7.60;;;;;;;0.44;87.74;100301.13;111271;242;38815;-69
2024/01/13 04:03:11;;;;;;;12.40;8.60;;;;;;;0.43;87.55;100303.17;111293;242;38358;-69
2024/01/13 04:05:56;;;;;;;10.90;9.00;;;;;;;0.45;87.80;100298.73;111244;242;38314;-69
2024/01/13 04:08:32;;;;;;;14.00;10.50;;;;;;;0.45;87.86;100300.63;111218;242;38248;-68
2024/01/13 04:11:09;;;;;;;14.50;10.80;;;;;;;0.44;87.84;100296.67;111251;242;39555;-67
2024/01/13 04:13:46;;;;;;;13.30;9.20;;;;;;;0.40;87.76;100295.63;111240;242;39697;-68
2024/01/13 04:16:24;;;;;;;11.50;8.20;;;;;;;0.41;87.90;100298.39;111201;242;38301;-68
2024/01/13 04:19:03;;;;;;;11.40;8.70;;;;;;;0.44;87.76;100304.21;111105;242;38017;-67
2024/01/13 04:21:40;;;;;;;12.40;9.70;;;;;;;0.48;87.99;100303.20;111221;242;38273;-69
2024/01/13 04:24:15;;;;;;;13.20;10.10;;;;;;;0.51;87.86;100304.58;111211;242;39567;-68
2024/01/13 04:26:52;;;;;;;14.80;11.00;;;;;;;0.52;88.17;100311.43;110524;242;912832;-67
2024/01/13 04:29:28;;;;;;;15.10;10.10;;;;;;;0.52;88.01;100317.61;111220;242;38851;-66
2024/01/13 04:32:06;;;;;;;16.50;11.30;;;;;;;0.48;87.95;100322.93;111200;242;38592;-67
2024/01/13 04:34:42;;;;;;;13.90;9.80;;;;;;;0.44;88.04;100326.34;111218;242;38402;-68
2024/01/13 04:37:16;;;;;;;13.80;9.00;;;;;;;0.44;88.08;100325.85;111231;242;39147;-66
2024/01/13 04:39:54;;;;;;;13.30;8.90;;;;;;;0.48;88.18;100323.27;111205;242;38451;-66
2024/01/13 04:42:33;;;;;;;12.60;9.10;;;;;;;0.51;88.08;100318.98;111126;242;39466;-68
2024/01/13 04:45:10;;;;;;;13.60;9.80;;;;;;;0.54;88.29;100310.06;111231;242;38371;-67
2024/01/13 04:47:46;;;;;;;13.50;10.00;;;;;;;0.54;88.26;100316.59;111209;242;38998;-67
2024/01/13 04:50:22;;;;;;;15.50;11.20;;;;;;;0.51;88.20;100312.64;111235;242;39492;-67
2024/01/13 04:53:00;;;;;;;12.40;9.80;;;;;;;0.48;88.23;100314.86;111211;242;38814;-67
2024/01/13 04:55:34;;;;;;;14.30;9.80;;;;;;;0.43;88.23;100316.23;111263;242;38405;-69
2024/01/13 04:58:08;;;;;;;12.20;8.80;;;;;;;0.40;88.25;100313.14;111202;242;38299;-70
2024/01/13 05:00:42;;;;;;;10.30;8.40;;;;;;;0.40;88.34;100312.46;111220;242;38828;-70
2024/01/13 05:03:17;;;;;;;11.80;8.70;;;;;;;0.42;88.46;100315.70;111253;242;38418;-66
2024/01/13 05:05:56;;;;;;;10.30;8.60;;;;;;;0.46;88.50;100314.86;110861;242;440251;-68
2024/01/13 05:08:36;;;;;;;15.10;10.00;;;;;;;0.46;88.48;100316.41;111205;242;39501;-68
2024/01/13 05:11:17;;;;;;;13.50;9.60;;;;;;;0.47;88.77;100315.03;111202;242;38546;-68
2024/01/13 05:13:58;;;;;;;13.20;9.60;;;;;;;0.48;88.86;100316.58;111100;242;38268;-68
2024/01/13 05:16:36;;;;;;;10.20;7.80;;;;;;;0.51;88.90;100313.50;111216;242;38476;-68
2024/01/13 05:19:12;;;;;;;9.70;7.70;;;;;;;0.53;88.70;100317.79;111217;242;38819;-68
2024/01/13 05:21:49;;;;;;;9.00;7.90;;;;;;;0.57;88.78;100315.73;111192;242;38289;-68
2024/01/13 05:24:28;;;;;;;11.90;9.20;;;;;;;0.59;88.94;100318.15;111133;242;175894;-68
2024/01/13 05:27:04;;;;;;;12.60;9.10;;;;;;;0.61;88.91;100322.95;111245;242;39505;-69
2024/01/13 05:29:40;;;;;;;13.30;9.60;;;;;;;0.58;88.82;100328.10;111230;242;39332;-68
2024/01/13 05:32:19;;;;;;;13.10;9.10;;;;;;;0.53;88.71;100328.25;111265;242;38555;-68
2024/01/13 05:34:57;;;;;;;11.90;7.80;;;;;;;0.50;88.69;100325.69;111288;242;38638;-69
2024/01/13 05:37:33;;;;;;;11.50;8.20;;;;;;;0.51;88.78;100331.70;111219;242;38335;-67
2024/01/13 05:40:10;;;;;;;11.30;8.90;;;;;;;0.54;88.96;100331.17;111230;242;38376;-68
2024/01/13 05:42:47;;;;;;;11.30;8.90;;;;;;;0.56;89.12;100333.58;111195;242;39083;-68
2024/01/13 05:45:21;;;;;;;10.50;9.30;;;;;;;0.59;89.19;100336.86;111242;242;39258;-67
2024/01/13 05:48:00;;;;;;;15.60;9.20;;;;;;;0.60;89.31;100337.90;111225;242;38960;-68
2024/01/13 05:50:37;;;;;;;10.40;8.40;;;;;;;0.53;89.13;100336.84;111208;242;38233;-67
2024/01/13 05:53:19;;;;;;;11.30;8.70;;;;;;;0.51;89.21;100335.30;111102;242;41968;-67
2024/01/13 05:55:55;;;;;;;10.40;7.90;;;;;;;0.46;89.07;100338.38;111228;242;38560;-69
2024/01/13 05:58:35;;;;;;;10.90;8.80;;;;;;;0.46;89.33;100335.29;111077;242;175922;-68
2024/01/13 06:01:15;;;;;;;10.50;7.90;;;;;;;0.48;89.65;100332.02;111212;242;38439;-66
2024/01/13 06:03:51;;;;;;;10.90;8.60;;;;;;;0.52;89.89;100326.38;111204;242;38638;-68
2024/01/13 06:06:29;;;;;;;10.90;8.30;;;;;;;0.51;89.79;100323.63;111227;242;38311;-68
2024/01/13 06:09:08;;;;;;;10.50;8.50;;;;;;;0.46;89.66;100325.16;111236;242;38452;-68
2024/01/13 06:11:47;;;;;;;11.20;8.80;;;;;;;0.47;89.86;100324.82;111264;242;38326;-67
2024/01/13 06:14:27;;;;;;;7.90;7.00;;;;;;;0.51;89.82;100325.17;111221;242;38697;-68
2024/01/13 06:17:05;;;;;;;8.50;7.60;;;;;;;0.56;89.81;100326.05;111234;242;38424;-67
2024/01/13 06:19:38;;;;;;;10.10;8.30;;;;;;;0.59;89.75;100318.15;111186;242;40014;-67
2024/01/13 06:22:18;;;;;;;13.80;9.00;;;;;;;0.60;89.81;100325.02;111278;242;38618;-66
2024/01/13 06:24:56;;;;;;;10.40;8.50;;;;;;;0.59;89.82;100320.89;111193;242;38348;-67
2024/01/13 06:27:31;;;;;;;11.20;9.00;;;;;;;0.57;89.80;100325.35;111206;242;38265;-67
2024/01/13 06:30:10;;;;;;;11.10;8.30;;;;;;;0.52;89.64;100327.40;111244;242;38809;-68
2024/01/13 06:32:48;;;;;;;9.90;7.60;;;;;;;0.47;89.41;100329.11;111231;242;40021;-68
2024/01/13 06:35:26;;;;;;;9.40;7.80;;;;;;;0.49;89.74;100331.52;111230;242;38327;-68
2024/01/13 06:38:06;;;;;;;10.40;7.20;;;;;;;0.54;89.77;100329.11;111189;242;38261;-67
2024/01/13 06:40:46;;;;;;;10.40;7.70;;;;;;;0.56;89.74;100325.70;110534;242;913605;-67
2024/01/13 06:43:27;;;;;;;12.30;8.70;;;;;;;0.58;89.91;100329.64;111118;242;38667;-68
2024/01/13 06:46:08;;;;;;;10.90;8.60;;;;;;;0.57;89.79;100330.51;111125;242;175942;-69
2024/01/13 06:48:45;;;;;;;10.20;7.30;;;;;;;0.50;89.55;100337.18;111264;242;39400;-69
2024/01/13 06:51:19;;;;;;;8.60;7.60;;;;;;;0.46;89.47;100339.75;111250;242;38560;-69
2024/01/13 06:53:56;;;;;;;9.70;7.70;;;;;;;0.47;89.69;100339.91;111235;242;39073;-68
2024/01/13 06:56:33;;;;;;;9.30;7.80;;;;;;;0.47;89.66;100338.89;111236;242;39251;-69
2024/01/13 06:59:10;;;;;;;9.00;7.80;;;;;;;0.53;90.04;100339.25;111231;242;38969;-67
2024/01/13 07:01:46;;;;;;;9.90;7.90;;;;;;;0.57;90.05;100343.20;111197;242;38560;-68
2024/01/13 07:04:29;;;;;;;9.20;7.70;;;;;;;0.58;90.08;100344.74;111214;242;38349;-68
2024/01/13 07:07:09;;;;;;;9.90;8.10;;;;;;;0.58;90.15;100342.69;111104;242;175932;-67
2024/01/13 07:09:48;;;;;;;12.70;8.50;;;;;;;0.60;90.03;100350.27;111215;242;39618;-66
2024/01/13 07:12:24;;;;;;;10.60;7.90;;;;;;;0.59;89.77;100348.88;111225;242;38340;-67
2024/01/13 07:15:02;;;;;;;10.20;8.40;;;;;;;0.61;89.84;100351.98;111254;242;37878;-67
2024/01/13 07:17:38;;;;;;;12.30;9.00;;;;;;;0.63;89.90;100352.99;111236;242;38846;-68
2024/01/13 07:20:14;;;;;;;12.70;9.20;;;;;;;0.67;90.08;100355.08;111256;242;39830;-68
2024/01/13 07:22:51;;;;;;;11.80;8.90;;;;;;;0.69;90.16;100356.45;111239;242;38336;-68
2024/01/13 07:25:30;;;;;;;12.10;9.00;;;;;;;0.68;90.06;100356.61;111198;242;38357;-67
2024/01/13 07:28:06;;;;;;;;;;;;;;;0.68;89.96;100353.70;111229;242;38565;-66
2024/01/13 07:30:42;;;;;;;11.90;8.90;;;;;;;0.66;90.02;100353.52;111256;242;38554;-66
2024/01/13 07:33:24;;;;;;;12.80;9.30;;;;;;;0.69;90.20;100356.45;111239;242;38246;-67
2024/01/13 07:36:03;;;;;;;16.20;10.80;;;;;;;0.73;90.25;100359.37;111211;242;38543;-67
2024/01/13 07:38:40;;;;;;;16.60;12.20;;;;;;;0.73;90.15;100359.89;111227;242;40028;-68
2024/01/13 07:41:20;;;;;;;18.30;11.80;;;;;;;0.72;90.10;100363.31;111226;242;38762;-69
2024/01/13 07:44:00;;;;;;;17.80;12.10;;;;;;;0.71;90.21;100360.23;111082;242;175888;-67
2024/01/13 07:46:42;;;;;;;16.50;11.70;;;;;;;0.72;90.06;100362.80;111217;242;38745;-66
2024/01/13 07:49:21;;;;;;;18.10;10.40;;;;;;;0.72;89.99;100362.29;111087;242;175967;-67
2024/01/13 07:51:56;;;;;;;16.20;12.30;;;;;;;0.74;89.86;100358.19;111110;242;175865;-67
2024/01/13 07:54:34;;;;;;;17.90;12.20;;;;;;;0.75;89.89;100350.64;111219;242;38329;-67
2024/01/13 07:57:14;;;;;;;17.60;13.00;;;;;;;0.77;90.03;100353.03;111247;242;38506;-68
2024/01/13 07:59:51;;;;;;;17.90;12.40;;;;;;;0.79;90.06;100347.02;111209;242;39421;-68
2024/01/13 08:02:28;;;;;;;18.70;12.30;;;;;;;0.82;90.18;100347.20;111258;242;38248;-68
2024/01/13 08:05:04;;;;;;;18.10;12.00;;;;;;;0.85;90.10;100345.15;111253;242;38473;-69
2024/01/13 08:07:37;;;;;;;17.90;12.00;;;;;;;0.92;90.14;100341.02;111230;242;38692;-70
2024/01/13 08:10:12;;;;;;;16.30;11.20;;;;;;;1.01;90.21;100339.31;111225;242;39118;-70
2024/01/13 08:12:48;;;;;;;15.20;11.90;;;;;;;1.09;89.97;100338.80;111216;242;38393;-67
2024/01/13 08:15:26;;;;;;;24.10;11.90;;;;;;;1.13;89.84;100338.11;111210;242;38733;-67
2024/01/13 08:18:09;;;;;;;17.80;11.70;;;;;;;1.15;89.73;100341.04;111232;242;39483;-68
2024/01/13 08:20:48;;;;;;;16.40;11.70;;;;;;;1.16;89.52;100339.66;111208;242;38307;-68
2024/01/13 08:23:24;;;;;;;16.30;11.00;;;;;;;1.13;89.30;100339.98;111213;242;39987;-68
2024/01/13 08:26:03;;;;;;;15.80;10.20;;;;;;;1.18;89.29;100342.56;111223;242;38310;-68
2024/01/13 08:28:41;;;;;;;12.90;9.60;;;;;;;1.19;88.73;100344.30;111212;242;39614;-69
2024/01/13 08:31:18;;;;;;;15.90;10.50;;;;;;;1.20;88.91;100344.80;111242;242;38434;-69
2024/01/13 08:33:53;;;;;;;;;;;;;;;1.25;88.97;100347.90;111225;242;38977;-70
2024/01/13 08:36:27;;;;;;;13.90;10.10;;;;;;;1.23;88.69;100347.56;111100;242;40427;-68
2024/01/13 08:39:01;;;;;;;13.70;10.40;;;;;;;1.20;88.69;100341.73;111258;242;38525;-69
2024/01/13 08:41:35;;;;;;;15.10;10.00;;;;;;;1.17;88.30;100348.09;111262;242;38965;-68
2024/01/13 08:44:09;;;;;;;13.20;9.00;;;;;;;1.13;88.15;100349.61;111275;242;38900;-68
2024/01/13 08:46:44;;;;;;;14.60;9.00;;;;;;;1.15;88.07;100345.85;111270;242;38564;-69
2024/01/13 08:49:24;;;;;;;12.10;8.80;;;;;;;1.18;88.15;100353.40;111100;242;175862;-67
2024/01/13 08:52:10;;;;;;;14.10;10.20;;;;;;;1.23;88.00;100351.16;111152;242;38513;-67
2024/01/13 08:54:48;;;;;;;17.50;11.30;;;;;;;1.27;88.02;100353.56;111249;242;39024;-68
2024/01/13 08:57:29;;;;;;;16.20;10.00;;;;;;;1.27;87.74;100351.33;111087;242;175534;-69
2024/01/13 09:00:08;;;;;;;14.50;9.90;;;;;;;1.21;87.30;100354.61;111228;242;38239;-69
2024/01/13 09:02:46;;;;;;;14.60;9.90;;;;;;;1.15;87.25;100359.23;111238;242;38366;-70
2024/01/13 09:05:25;;;;;;;14.10;8.70;;;;;;;1.15;87.40;100358.05;111247;242;38533;-68
2024/01/13 09:08:01;;;;;;;15.50;8.90;;;;;;;1.14;87.11;100363.02;111200;242;39258;-69
2024/01/13 09:10:39;;;;;;;16.90;9.00;;;;;;;1.19;87.20;100361.14;111237;242;38264;-68
2024/01/13 09:13:17;;;;;;;12.40;8.80;;;;;;;1.23;87.36;100350.13;111233;242;39742;-71
2024/01/13 09:15:54;;;;;;;11.60;8.80;;;;;;;1.24;86.79;100348.08;111154;242;175573;-69
2024/01/13 09:18:27;;;;;;;10.80;8.60;;;;;;;1.21;86.75;100344.80;111238;242;39665;-69
2024/01/13 09:21:05;;;;;;;14.90;9.20;;;;;;;1.18;86.51;100340.86;111231;242;39942;-68
2024/01/13 09:23:42;;;;;;;11.40;8.80;;;;;;;1.16;86.60;100334.85;111242;242;38406;-69
2024/01/13 09:26:18;;;;;;;10.70;8.00;;;;;;;1.16;86.64;100323.51;111244;242;38733;-70
2024/01/13 09:28:53;;;;;;;11.90;8.00;;;;;;;1.19;86.57;100332.96;111186;242;38550;-69
2024/01/13 09:31:32;;;;;;;11.00;7.20;;;;;;;1.25;86.75;100332.27;111262;242;38364;-68
2024/01/13 09:34:11;;;;;;;12.00;7.80;;;;;;;1.33;86.53;100324.01;111216;242;38323;-68
2024/01/13 09:36:49;;;;;;;12.20;8.90;;;;;;;1.40;86.57;100325.37;111253;242;38513;-68
2024/01/13 09:39:26;;;;;;;11.00;8.40;;;;;;;1.42;86.18;100324.67;111200;242;38385;-68
2024/01/13 09:42:02;;;;;;;13.70;9.00;;;;;;;1.42;86.09;100316.08;111232;242;38546;-69
2024/01/13 09:44:36;;;;;;;12.50;8.70;;;;;;;1.42;86.07;100316.59;111208;242;38342;-70
2024/01/13 09:47:10;;;;;;;14.60;9.40;;;;;;;1.41;85.83;100316.60;111182;242;38501;-69
2024/01/13 09:49:46;;;;;;;12.90;9.20;;;;;;;1.37;85.63;100305.77;111215;242;40152;-70
2024/01/13 09:52:24;;;;;;;14.90;8.60;;;;;;;1.37;85.65;100302.50;111226;242;40085;-68
2024/01/13 09:55:03;;;;;;;13.90;8.60;;;;;;;1.38;85.41;100296.49;111265;242;39053;-70
2024/01/13 09:57:40;;;;;;;15.80;9.40;;;;;;;1.39;85.24;100290.48;111236;242;38317;-67
2024/01/13 10:00:20;;;;;;;20.10;10.60;;;;;;;1.44;85.44;100285.31;111231;242;38428;-70
2024/01/13 10:03:00;;;;;;;19.90;10.90;;;;;;;1.47;85.40;100283.59;111237;242;38511;-69
2024/01/13 10:05:40;;;;;;;18.10;11.80;;;;;;;1.45;85.10;100282.21;111253;242;38473;-69
2024/01/13 10:08:19;;;;;;;21.00;13.10;;;;;;;1.41;84.91;100280.85;111270;242;39058;-69
2024/01/13 10:10:59;;;;;;;22.90;14.00;;;;;;;1.39;84.95;100273.30;111248;242;38236;-67
2024/01/13 10:13:39;;;;;;;21.10;13.30;;;;;;;1.37;85.06;100266.92;111201;242;38793;-66
2024/01/13 10:16:16;;;;;;;26.80;14.50;;;;;;;1.37;84.91;100265.04;111252;242;38269;-68
2024/01/13 10:18:53;;;;;;;19.90;12.80;;;;;;;1.36;84.82;100266.25;111130;242;38964;-69
2024/01/13 10:21:32;;;;;;;24.20;14.10;;;;;;;1.38;84.71;100262.65;111232;242;39424;-68
2024/01/13 10:24:11;;;;;;;22.40;13.80;;;;;;;1.36;84.56;100258.86;111120;242;38698;-68
2024/01/13 10:26:52;;;;;;;25.40;14.90;;;;;;;1.34;84.41;100261.45;111229;242;38286;-68
2024/01/13 10:29:31;;;;;;;25.20;14.80;;;;;;;1.29;84.54;100258.19;111112;242;39088;-68
2024/01/13 10:32:16;;;;;;;22.90;14.90;;;;;;;1.27;84.64;100253.89;111116;242;39472;-67
2024/01/13 10:35:06;;;;;;;22.40;14.30;;;;;;;1.23;84.60;100247.71;111192;242;39286;-68
2024/01/13 10:37:46;;;;;;;24.20;14.60;;;;;;;1.21;84.52;100247.73;111216;242;38287;-69
2024/01/13 10:40:31;;;;;;;20.30;12.90;;;;;;;1.18;84.39;100247.91;111248;242;38266;-69
2024/01/13 10:43:16;;;;;;;24.30;14.50;;;;;;;1.19;84.59;100247.91;111225;242;38892;-69
2024/01/13 10:46:08;;;;;;;19.60;12.30;;;;;;;1.21;84.62;100230.54;111177;242;38264;-68
2024/01/13 10:48:50;;;;;;;24.50;13.30;;;;;;;1.19;84.52;100219.22;111142;242;38273;-68
2024/01/13 10:51:37;;;;;;;18.00;12.10;;;;;;;1.19;84.57;100212.69;111250;242;38339;-70
2024/01/13 10:54:16;;;;;;;19.10;12.60;;;;;;;1.18;84.48;100205.46;111185;242;38249;-67
2024/01/13 10:56:56;;;;;;;;;;;;;;;1.12;84.01;100197.58;111236;242;38251;-68
2024/01/13 10:59:38;;;;;;;31.30;12.20;;;;;;;1.03;83.99;100193.83;110513;242;912602;-68
2024/01/13 11:02:15;;;;;;;16.50;11.50;;;;;;;0.97;84.23;100193.13;111235;242;38296;-69
2024/01/13 11:04:51;;;;;;;14.60;10.40;;;;;;;0.96;83.99;100189.02;111194;242;38307;-69
2024/01/13 11:07:27;;;;;;;16.50;10.40;;;;;;;0.97;84.27;100180.60;111220;242;38899;-70
2024/01/13 11:10:05;;;;;;;16.40;10.90;;;;;;;1.01;84.28;100177.50;111236;242;39543;-70
2024/01/13 11:12:58;;;;;;;17.10;11.60;;;;;;;1.07;84.52;100177.14;111244;242;39513;-68
2024/01/13 11:15:42;;;;;;;20.00;12.70;;;;;;;1.09;84.26;100182.30;111200;242;38879;-68
2024/01/13 11:18:21;;;;;;;22.50;13.40;;;;;;;1.06;84.27;100187.80;111193;242;38338;-69
2024/01/13 11:21:06;;;;;;;23.00;14.60;;;;;;;1.02;84.27;100188.48;111221;242;38887;-69
2024/01/13 11:23:43;;;;;;;21.90;14.10;;;;;;;0.98;84.27;100184.04;111230;242;40613;-70
2024/01/13 11:26:19;;;;;;;21.20;13.70;;;;;;;0.94;84.47;100186.63;111278;242;39707;-68
2024/01/13 11:28:56;;;;;;;21.10;13.60;;;;;;;0.95;84.53;100188.68;111227;242;38692;-70
2024/01/13 11:31:40;;;;;;;19.50;13.10;;;;;;;0.95;84.40;100185.42;111308;242;38714;-71
2024/01/13 11:34:14;;;;;;;20.30;13.10;;;;;;;0.98;84.45;100179.56;111209;242;38243;-69
2024/01/13 11:36:50;;;;;;;20.10;13.60;;;;;;;0.98;84.24;100174.23;111242;242;38787;-68
2024/01/13 11:39:24;;;;;;;19.60;13.00;;;;;;;0.97;84.32;100173.21;111105;242;175911;-70
2024/01/13 11:41:59;;;;;;;20.40;12.80;;;;;;;0.98;84.41;100176.64;111250;242;38592;-69
2024/01/13 11:44:43;;;;;;;20.90;13.10;;;;;;;0.95;84.23;100168.94;111197;242;38246;-68
2024/01/13 11:47:32;;;;;;;19.70;12.30;;;;;;;0.94;84.29;100164.82;111189;242;38314;-67
2024/01/13 11:50:22;;;;;;;;;;;;;;;0.94;84.18;100160.17;111128;242;41557;-67
2024/01/13 11:53:01;;;;;;;16.80;11.20;;;;;;;0.93;84.17;100153.46;111109;242;38316;-68
2024/01/13 11:55:56;;;;;;;16.40;11.30;;;;;;;0.95;84.06;100149.88;111212;242;38264;-68
2024/01/13 11:58:34;;;;;;;21.00;12.60;;;;;;;0.97;84.16;100147.96;111217;242;39370;-68
2024/01/13 12:01:11;;;;;;;17.10;12.70;;;;;;;0.97;84.03;100139.02;111206;242;38452;-67
2024/01/13 12:03:49;;;;;;;22.20;14.40;;;;;;;0.96;84.17;100134.91;111187;242;39999;-67
2024/01/13 12:06:28;;;;;;;19.50;14.20;;;;;;;0.89;84.00;100126.35;111236;242;38311;-69
2024/01/13 12:09:01;;;;;;;18.80;14.10;;;;;;;0.81;83.86;100117.79;111248;242;39275;-69
2024/01/13 12:11:37;;;;;;;21.30;13.60;;;;;;;0.72;83.74;100116.43;111272;242;38310;-68
2024/01/13 12:14:13;;;;;;;18.10;12.60;;;;;;;0.69;83.74;100115.23;111204;242;39480;-68